Time;durP1;ratioP1;P1;durP2;ratioP2;P2;SDS_P1;SDS_P2;PMS_P1;PMS_P2;Temp;Humidity;BMP_temperature;BMP_pressure;BME280_temperature;BME280_humidity;BME280_pressure;Samples;Min_cycle;Max_cycle;Signal;HPM_P1;HPM_P2
2023/05/28 00:00:13;;;;;;;14.90;5.88;;;;;;;12.69;63.30;101606.63;4898904;29;20119;-74
2023/05/28 00:02:40;;;;;;;13.48;5.45;;;;;;;12.68;63.33;101597.69;4898592;29;20055;-74
2023/05/28 00:05:07;;;;;;;13.18;5.60;;;;;;;12.68;63.71;101599.56;4898621;29;20052;-74
2023/05/28 00:07:33;;;;;;;15.68;6.20;;;;;;;12.67;64.11;101598.72;4898450;29;20059;-75
2023/05/28 00:10:00;;;;;;;15.10;5.65;;;;;;;12.64;64.43;101599.84;4898595;29;20053;-74
2023/05/28 00:12:27;;;;;;;13.93;4.70;;;;;;;12.57;64.87;101600.63;4896067;29;20048;-75
2023/05/28 00:14:54;;;;;;;10.98;5.25;;;;;;;12.54;65.04;101599.06;4898946;29;20056;-75
2023/05/28 00:17:20;;;;;;;14.88;5.45;;;;;;;12.59;64.68;101591.41;4898278;29;20052;-76
2023/05/28 00:19:47;;;;;;;11.70;5.65;;;;;;;12.69;65.11;101593.16;4898455;29;20096;-75
2023/05/28 00:22:14;;;;;;;14.40;4.95;;;;;;;12.71;64.88;101592.00;4898248;29;20136;-75
2023/05/28 00:24:41;;;;;;;15.85;5.95;;;;;;;12.65;65.28;101596.16;4897967;29;20136;-75
2023/05/28 00:27:07;;;;;;;15.60;5.47;;;;;;;12.59;65.89;101590.53;4897972;29;20104;-75
2023/05/28 00:29:34;;;;;;;15.48;5.47;;;;;;;12.39;67.15;101590.69;4896246;29;20052;-75
2023/05/28 00:32:01;;;;;;;13.52;5.35;;;;;;;12.49;67.04;101587.94;4879535;29;20516;-75
2023/05/28 00:34:27;;;;;;;13.07;6.10;;;;;;;12.41;67.74;101585.13;4879143;29;20458;-75
2023/05/28 00:36:54;;;;;;;14.27;5.57;;;;;;;12.35;68.71;101581.22;4879163;29;20053;-75
2023/05/28 00:39:21;;;;;;;17.30;5.72;;;;;;;12.41;68.72;101582.44;4879020;29;20060;-76
2023/05/28 00:41:47;;;;;;;17.58;5.53;;;;;;;12.49;68.72;101574.47;4878762;29;20132;-75
2023/05/28 00:44:14;;;;;;;12.70;5.45;;;;;;;12.44;68.51;101576.75;4879132;29;20077;-75
2023/05/28 00:46:44;;;;;;;12.65;5.80;;;;;;;12.22;69.96;101577.19;4879110;29;20057;-75
2023/05/28 00:49:11;;;;;;;16.15;5.95;;;;;;;12.21;70.35;101573.66;4878894;29;20410;-75
2023/05/28 00:51:39;;;;;;;13.40;5.93;;;;;;;12.16;71.36;101573.25;4878811;29;20053;-75
2023/05/28 00:54:06;;;;;;;12.75;5.78;;;;;;;12.26;71.58;101573.19;4878935;29;20131;-75
2023/05/28 00:56:33;;;;;;;16.42;6.22;;;;;;;12.13;71.86;101573.53;4878603;29;20097;-75
2023/05/28 00:59:04;;;;;;;12.48;5.30;;;;;;;12.23;71.45;101571.63;4878858;29;20053;-75
2023/05/28 01:01:31;;;;;;;15.30;5.47;;;;;;;12.21;71.79;101570.09;4878797;29;20135;-75
2023/05/28 01:04:00;;;;;;;18.98;5.57;;;;;;;12.15;72.63;101566.19;4878805;29;20057;-75
2023/05/28 01:07:22;;;;;;;18.00;5.57;;;;;;;12.16;73.17;101570.56;4879116;29;20059;-75
2023/05/28 01:09:49;;;;;;;14.95;5.72;;;;;;;12.05;73.91;101565.38;4896363;29;20478;-75
2023/05/28 01:12:17;;;;;;;14.40;5.07;;;;;;;11.92;75.24;101571.09;4895765;29;20045;-75
2023/05/28 01:14:44;;;;;;;17.08;5.20;;;;;;;11.88;76.53;101564.31;4896456;29;20045;-75
2023/05/28 01:17:11;;;;;;;19.27;5.43;;;;;;;11.96;76.34;101567.09;4896365;29;20048;-75
2023/05/28 01:19:39;;;;;;;16.30;5.60;;;;;;;12.08;75.54;101559.69;4880537;29;20092;-75
2023/05/28 01:22:05;;;;;;;21.45;5.90;;;;;;;12.04;76.01;101561.00;4896390;29;20478;-75
2023/05/28 01:24:35;;;;;;;13.55;5.35;;;;;;;12.02;76.25;101555.75;4896204;29;20052;-75
2023/05/28 01:27:03;;;;;;;15.57;5.55;;;;;;;12.01;76.77;101558.63;4896146;29;20094;-76
2023/05/28 01:29:29;;;;;;;15.15;5.43;;;;;;;12.01;77.11;101564.84;4897628;29;20052;-75
2023/05/28 01:31:56;;;;;;;15.35;5.70;;;;;;;11.97;77.16;101566.13;4933877;29;20563;-75
2023/05/28 01:34:23;;;;;;;15.25;5.70;;;;;;;11.92;77.56;101566.56;4932762;29;20055;-75
2023/05/28 01:37:16;;;;;;;12.98;5.70;;;;;;;11.89;77.95;101568.69;4933736;29;20048;-75
2023/05/28 01:39:48;;;;;;;12.27;5.28;;;;;;;11.69;79.61;101573.31;4930197;29;20070;-75
2023/05/28 01:42:14;;;;;;;14.77;5.88;;;;;;;11.78;80.07;101558.13;4933851;29;20043;-75
2023/05/28 01:44:42;;;;;;;10.85;5.40;;;;;;;11.80;80.37;101561.53;4934063;29;20056;-74
2023/05/28 01:47:12;;;;;;;21.33;6.15;;;;;;;11.72;80.94;101564.94;4934216;29;20388;-75
2023/05/28 01:49:39;;;;;;;16.63;5.95;;;;;;;11.71;80.95;101563.25;4933754;29;20081;-75
2023/05/28 01:52:06;;;;;;;17.23;5.72;;;;;;;11.74;79.95;101562.97;4933615;29;20408;-75
2023/05/28 01:54:34;;;;;;;15.65;5.65;;;;;;;11.65;80.55;101561.97;4934258;29;20083;-75
2023/05/28 01:57:01;;;;;;;12.93;5.55;;;;;;;11.65;81.35;101553.88;4933953;29;20044;-75
2023/05/28 01:59:29;;;;;;;19.77;5.90;;;;;;;11.62;82.02;101554.22;4933294;29;20130;-75
2023/05/28 02:01:56;;;;;;;13.13;6.57;;;;;;;11.62;82.58;101562.28;4933600;29;20051;-76
2023/05/28 02:04:22;;;;;;;12.27;5.78;;;;;;;11.62;83.04;101562.28;4933839;29;20071;-75
2023/05/28 02:06:49;;;;;;;16.00;5.28;;;;;;;11.60;83.46;101547.28;4933500;29;20050;-75
2023/05/28 02:09:16;;;;;;;16.05;5.85;;;;;;;11.56;83.77;101553.94;4933086;29;20047;-75
2023/05/28 02:11:43;;;;;;;14.38;5.65;;;;;;;11.58;83.50;101546.56;4933823;29;20048;-75
2023/05/28 02:14:14;;;;;;;14.80;6.05;;;;;;;11.40;84.96;101552.69;4933858;29;20048;-76
2023/05/28 02:16:42;;;;;;;14.65;5.75;;;;;;;11.27;87.51;101546.78;4934023;29;20055;-75
2023/05/28 02:19:11;;;;;;;18.33;5.82;;;;;;;11.28;87.79;101551.19;4933608;29;20047;-75
2023/05/28 02:21:37;;;;;;;11.85;5.53;;;;;;;11.26;88.74;101547.78;4933048;29;20048;-76
2023/05/28 02:24:04;;;;;;;19.00;5.68;;;;;;;11.43;87.87;101549.72;4931928;29;20107;-72
2023/05/28 02:26:32;;;;;;;14.30;5.68;;;;;;;11.45;87.21;101547.75;4933004;29;20440;-72
2023/05/28 02:28:58;;;;;;;17.15;6.50;;;;;;;11.46;87.07;101552.13;4932960;29;20067;-72
2023/05/28 02:31:25;;;;;;;15.75;5.78;;;;;;;11.44;86.91;101556.78;4932370;29;20059;-72
2023/05/28 02:33:52;;;;;;;15.27;5.60;;;;;;;11.41;87.93;101546.34;4933668;29;20052;-74
2023/05/28 02:36:18;;;;;;;13.88;5.78;;;;;;;11.45;87.27;101553.13;4933854;29;20052;-71
2023/05/28 02:38:46;;;;;;;15.15;5.88;;;;;;;11.43;87.15;101551.56;4933616;29;20040;-71
2023/05/28 02:41:12;;;;;;;12.48;5.35;;;;;;;11.45;87.55;101553.13;4932978;29;20063;-71
2023/05/28 02:43:39;;;;;;;17.30;6.28;;;;;;;11.40;87.62;101550.00;4932631;29;20412;-71
2023/05/28 02:46:06;;;;;;;13.88;5.65;;;;;;;11.37;88.14;101544.94;4932884;29;20463;-71
2023/05/28 02:48:33;;;;;;;13.80;6.13;;;;;;;11.37;89.01;101550.31;4932697;29;20114;-71
2023/05/28 02:50:59;;;;;;;15.80;5.57;;;;;;;11.33;89.13;101551.59;4932788;29;20099;-72
2023/05/28 02:53:30;;;;;;;13.20;5.80;;;;;;;11.27;89.69;101546.78;4935669;29;20059;-71
2023/05/28 02:55:57;;;;;;;18.13;6.67;;;;;;;11.29;90.17;101554.72;4936221;29;20130;-71
2023/05/28 02:58:24;;;;;;;18.63;7.15;;;;;;;11.26;90.91;101545.09;4936545;29;20130;-70
2023/05/28 03:00:51;;;;;;;17.83;6.65;;;;;;;11.27;90.86;101554.84;4935781;29;20051;-70
2023/05/28 03:03:17;;;;;;;16.10;5.32;;;;;;;11.25;91.21;101553.31;4932958;29;20043;-72
2023/05/28 03:05:44;;;;;;;18.38;6.10;;;;;;;11.26;91.32;101555.00;4936217;29;20052;-71
2023/05/28 03:08:11;;;;;;;17.90;5.55;;;;;;;11.26;91.09;101555.84;4935709;29;20118;-71
2023/05/28 03:10:37;;;;;;;19.73;6.13;;;;;;;11.23;91.70;101545.41;4935909;29;20107;-70
2023/05/28 03:13:04;;;;;;;13.15;5.85;;;;;;;11.28;91.50;101550.34;4935713;29;20074;-70
2023/05/28 03:15:31;;;;;;;23.50;10.35;;;;;;;11.26;91.66;101555.84;4935294;29;20092;-71
2023/05/28 03:17:57;;;;;;;16.55;7.05;;;;;;;11.20;92.44;101553.72;4926420;29;20594;-71
2023/05/28 03:20:24;;;;;;;21.02;6.90;;;;;;;11.20;92.07;101548.38;4934912;29;20044;-71
2023/05/28 03:22:55;;;;;;;17.90;6.50;;;;;;;11.22;91.42;101546.41;4937114;29;20043;-71
2023/05/28 03:25:21;;;;;;;16.27;6.13;;;;;;;11.23;92.21;101556.97;4917349;29;20051;-72
2023/05/28 03:27:48;;;;;;;24.30;7.15;;;;;;;11.12;93.20;101550.94;4917716;29;20074;-71
2023/05/28 03:30:15;;;;;;;16.15;6.85;;;;;;;11.15;94.25;101545.28;4917342;29;20052;-71
2023/05/28 03:32:41;;;;;;;17.17;6.88;;;;;;;11.18;94.83;101536.94;4916317;29;20048;-70
2023/05/28 03:35:08;;;;;;;18.40;6.82;;;;;;;11.23;94.66;101542.69;4916291;29;20048;-71
2023/05/28 03:37:35;;;;;;;13.60;6.78;;;;;;;11.23;95.16;101540.03;4916235;29;20424;-70
2023/05/28 03:40:04;;;;;;;16.27;6.32;;;;;;;11.28;94.85;101540.44;4900362;29;20075;-72
2023/05/28 03:42:30;;;;;;;22.35;6.45;;;;;;;11.28;94.85;101543.13;4916503;29;20055;-73
2023/05/28 03:44:57;;;;;;;18.92;6.10;;;;;;;11.26;95.49;101546.94;4916899;29;20095;-73
2023/05/28 03:47:24;;;;;;;18.52;6.80;;;;;;;11.23;96.17;101538.19;4916343;29;20052;-70
2023/05/28 03:49:51;;;;;;;19.63;6.60;;;;;;;11.36;93.21;101540.56;4917457;29;20047;-71
2023/05/28 03:52:17;;;;;;;17.15;6.63;;;;;;;11.26;95.52;101546.94;4936019;29;20055;-73
2023/05/28 03:54:45;;;;;;;20.95;6.50;;;;;;;11.27;95.79;101544.09;4935700;29;20059;-72
2023/05/28 03:57:12;;;;;;;21.42;6.95;;;;;;;11.25;96.55;101539.91;4934891;29;20044;-72
2023/05/28 03:59:38;;;;;;;16.27;6.70;;;;;;;11.27;95.76;101538.72;4935752;29;20048;-72
2023/05/28 04:02:05;;;;;;;13.93;6.15;;;;;;;11.27;96.08;101538.72;4935648;29;20043;-72
2023/05/28 04:04:31;;;;;;;19.50;6.95;;;;;;;11.31;94.29;101542.84;4935669;29;20087;-72
2023/05/28 04:06:58;;;;;;;21.05;6.43;;;;;;;11.30;94.30;101540.28;4935654;29;20039;-71
2023/05/28 04:09:25;;;;;;;14.93;6.25;;;;;;;11.27;95.56;101544.09;4934949;29;20126;-70
2023/05/28 04:11:51;;;;;;;15.57;6.75;;;;;;;11.37;95.55;101544.09;4936076;29;20412;-70
2023/05/28 04:14:18;;;;;;;19.48;7.22;;;;;;;11.36;93.14;101547.78;4916575;29;20040;-70
2023/05/28 04:16:44;;;;;;;15.63;5.93;;;;;;;11.36;93.08;101542.41;4915862;29;20048;-70
2023/05/28 04:19:11;;;;;;;21.80;6.80;;;;;;;11.35;93.14;101546.94;4916625;29;20127;-72
2023/05/28 04:21:37;;;;;;;18.42;7.03;;;;;;;11.31;93.42;101540.16;4915262;29;20573;-70
2023/05/28 04:24:04;;;;;;;16.00;6.13;;;;;;;11.39;93.49;101542.13;4915798;29;20132;-73
2023/05/28 04:26:32;;;;;;;14.13;6.70;;;;;;;11.39;93.57;101540.28;4900174;29;20063;-74
2023/05/28 04:28:59;;;;;;;14.15;5.78;;;;;;;11.38;94.29;101537.75;4917246;29;20044;-74
2023/05/28 04:31:27;;;;;;;15.10;5.70;;;;;;;11.45;94.15;101537.00;4908876;29;20052;-73
2023/05/28 04:33:53;;;;;;;19.60;6.57;;;;;;;11.49;93.18;101542.09;4916469;29;20079;-74
2023/05/28 04:36:20;;;;;;;16.92;5.90;;;;;;;11.49;93.19;101542.94;4917595;29;20056;-73
2023/05/28 04:38:47;;;;;;;19.33;5.47;;;;;;;11.57;91.24;101552.94;4917216;29;20139;-74
2023/05/28 04:41:14;;;;;;;19.65;6.45;;;;;;;11.62;90.58;101547.97;4917179;29;20044;-73
2023/05/28 04:43:41;;;;;;;17.00;5.63;;;;;;;11.61;90.24;101538.22;4917110;29;20055;-74
2023/05/28 04:46:08;;;;;;;17.25;6.10;;;;;;;11.62;89.37;101539.91;4917020;29;20107;-73
2023/05/28 04:48:35;;;;;;;12.45;5.85;;;;;;;11.59;88.11;101543.75;4917441;29;20052;-75
2023/05/28 04:51:05;;;;;;;14.77;5.13;;;;;;;11.62;87.89;101539.91;4930116;29;20104;-78
2023/05/28 04:53:33;;;;;;;14.80;5.63;;;;;;;11.73;86.28;101541.63;4935430;29;20048;-78
2023/05/28 04:56:00;;;;;;;15.95;5.88;;;;;;;11.77;85.47;101543.00;4934549;29;20040;-77
2023/05/28 04:58:27;;;;;;;16.02;5.45;;;;;;;11.80;84.53;101545.41;4935161;29;20460;-76
2023/05/28 05:00:55;;;;;;;18.42;5.63;;;;;;;11.84;83.10;101546.81;4918292;29;20043;-78
2023/05/28 05:03:22;;;;;;;13.23;5.55;;;;;;;11.84;83.17;101536.88;4935534;29;20047;-76
2023/05/28 05:05:49;;;;;;;22.13;5.55;;;;;;;11.85;83.99;101549.31;4934836;29;20107;-78
2023/05/28 05:08:16;;;;;;;12.25;4.85;;;;;;;11.87;83.55;101551.88;4934520;29;20102;-78
2023/05/28 05:10:43;;;;;;;11.88;5.07;;;;;;;11.96;80.57;101548.28;4934604;29;20138;-78
2023/05/28 05:13:09;;;;;;;12.68;5.35;;;;;;;11.99;81.56;101545.28;4934656;29;20047;-78
2023/05/28 05:15:36;;;;;;;15.32;6.32;;;;;;;12.03;81.48;101543.16;4933547;29;20127;-78
2023/05/28 05:18:03;;;;;;;17.45;5.20;;;;;;;12.08;77.58;101541.72;4934947;29;20043;-77
2023/05/28 05:20:30;;;;;;;15.15;5.30;;;;;;;12.05;78.63;101546.56;4896971;29;20568;-78
2023/05/28 05:22:57;;;;;;;17.48;5.70;;;;;;;12.06;79.60;101545.53;4898631;29;20068;-73
2023/05/28 05:25:24;;;;;;;11.70;5.05;;;;;;;12.13;78.61;101541.25;4910163;29;20056;-73
2023/05/28 05:27:50;;;;;;;11.40;5.20;;;;;;;12.24;75.98;101532.97;4910280;29;20454;-73
2023/05/28 05:30:17;;;;;;;16.27;5.35;;;;;;;12.27;75.03;101538.06;4909732;29;20048;-72
2023/05/28 05:32:44;;;;;;;14.65;5.28;;;;;;;12.28;75.57;101542.47;4910548;29;20057;-73
2023/05/28 05:35:11;;;;;;;14.27;4.70;;;;;;;12.22;76.58;101545.75;4910989;29;20071;-72
2023/05/28 05:37:38;;;;;;;16.15;5.05;;;;;;;12.23;74.95;101541.22;4910250;29;20080;-72
2023/05/28 05:40:05;;;;;;;19.20;5.25;;;;;;;12.21;74.77;101544.06;4891704;29;20049;-72
2023/05/28 05:42:32;;;;;;;13.85;4.97;;;;;;;12.18;74.66;101541.66;4891293;29;20057;-72
2023/05/28 05:44:58;;;;;;;11.45;4.97;;;;;;;12.28;73.04;101542.47;4891360;29;20394;-73
2023/05/28 05:47:25;;;;;;;13.48;5.63;;;;;;;12.39;72.66;101546.78;4890976;29;20060;-72
2023/05/28 05:49:52;;;;;;;15.70;4.85;;;;;;;12.41;72.91;101534.84;4893451;29;20101;-72
2023/05/28 05:52:19;;;;;;;13.43;5.10;;;;;;;12.48;71.89;101539.63;4907567;29;20044;-72
2023/05/28 05:54:46;;;;;;;18.13;4.95;;;;;;;12.53;71.91;101532.78;4911355;29;20151;-72
2023/05/28 05:57:12;;;;;;;13.02;5.72;;;;;;;12.60;71.85;101533.88;4911970;29;21220;-72
2023/05/28 05:59:39;;;;;;;10.32;4.88;;;;;;;12.67;70.86;101534.09;4910776;29;20092;-72
2023/05/28 06:02:06;;;;;;;13.05;4.43;;;;;;;12.76;70.67;101538.56;4911220;29;20048;-72
2023/05/28 06:04:33;;;;;;;10.50;4.95;;;;;;;12.81;70.28;101538.13;4893835;29;20052;-72
2023/05/28 06:07:06;;;;;;;12.48;4.82;;;;;;;12.87;70.63;101546.44;4893337;29;20082;-73
2023/05/28 06:09:33;;;;;;;12.45;5.03;;;;;;;12.91;68.13;101543.44;4908672;29;20068;-72
2023/05/28 06:12:01;;;;;;;10.10;4.40;;;;;;;13.05;65.91;101540.19;4908547;29;20053;-71
2023/05/28 06:14:28;;;;;;;12.65;4.30;;;;;;;13.13;66.19;101539.38;4903577;29;20056;-72
2023/05/28 06:16:54;;;;;;;9.90;4.53;;;;;;;13.17;66.87;101541.59;4907074;29;20081;-73
2023/05/28 06:19:22;;;;;;;6.97;3.85;;;;;;;13.11;64.78;101543.09;4907577;29;20060;-73
2023/05/28 06:21:50;;;;;;;15.75;4.60;;;;;;;13.21;62.74;101536.75;4906311;29;20045;-71
2023/05/28 06:24:16;;;;;;;11.25;4.28;;;;;;;13.35;63.01;101542.41;4903648;29;20054;-69
2023/05/28 06:26:43;;;;;;;10.23;4.22;;;;;;;13.48;63.75;101541.13;4887223;29;20057;-68
2023/05/28 06:29:10;;;;;;;11.52;3.97;;;;;;;13.65;63.20;101542.06;4883733;29;20188;-69
2023/05/28 06:31:36;;;;;;;11.25;4.35;;;;;;;13.43;62.06;101543.47;4883789;29;20053;-69
2023/05/28 06:34:03;;;;;;;11.05;4.47;;;;;;;13.68;59.01;101539.06;4883835;29;20136;-68
2023/05/28 06:36:30;;;;;;;7.40;4.35;;;;;;;13.83;58.92;101543.69;4883789;29;20072;-70
2023/05/28 06:38:57;;;;;;;8.93;3.80;;;;;;;13.82;56.78;101542.03;4883936;29;20045;-70
2023/05/28 06:41:23;;;;;;;10.18;4.65;;;;;;;13.88;55.87;101545.09;4884159;29;20061;-69
2023/05/28 06:43:50;;;;;;;10.30;4.07;;;;;;;14.23;56.67;101534.09;4884591;29;20053;-68
2023/05/28 06:46:17;;;;;;;10.80;4.45;;;;;;;14.34;56.47;101537.47;4883796;29;20049;-68
2023/05/28 06:48:43;;;;;;;9.95;3.70;;;;;;;14.04;53.28;101534.34;4883770;29;20052;-69
2023/05/28 06:51:10;;;;;;;6.88;3.67;;;;;;;14.51;53.49;101529.25;4867026;29;20081;-69
2023/05/28 06:53:38;;;;;;;10.32;3.72;;;;;;;14.87;51.48;101536.22;4884249;29;20082;-68
2023/05/28 06:56:06;;;;;;;14.20;4.47;;;;;;;14.91;51.21;101534.88;4883246;29;20478;-68
2023/05/28 06:58:32;;;;;;;9.15;3.80;;;;;;;14.86;50.05;101540.78;4883528;29;20076;-69
2023/05/28 07:01:01;;;;;;;7.00;3.72;;;;;;;14.82;47.53;101536.75;4882750;29;20049;-69
2023/05/28 07:03:28;;;;;;;13.85;3.65;;;;;;;15.01;48.44;101532.84;4883507;29;20084;-69
2023/05/28 07:05:54;;;;;;;12.25;4.05;;;;;;;15.34;48.31;101527.41;4884383;29;20077;-70
2023/05/28 07:08:22;;;;;;;6.00;3.45;;;;;;;15.53;46.63;101527.00;4884821;29;20458;-68
2023/05/28 07:10:48;;;;;;;10.57;3.72;;;;;;;15.64;46.99;101534.81;4898985;29;20489;-69
2023/05/28 07:13:15;;;;;;;10.85;3.60;;;;;;;15.86;48.68;101524.22;4902362;29;20056;-69
2023/05/28 07:15:41;;;;;;;7.93;3.13;;;;;;;16.07;49.10;101519.06;4902351;29;20155;-68
2023/05/28 07:18:08;;;;;;;10.23;3.67;;;;;;;16.70;45.12;101521.72;4902579;29;20120;-67
2023/05/28 07:20:35;;;;;;;8.93;3.60;;;;;;;16.56;44.64;101524.19;4885714;29;20053;-68
2023/05/28 07:23:01;;;;;;;7.50;3.28;;;;;;;16.96;43.56;101518.66;4902221;29;20072;-67
2023/05/28 07:25:28;;;;;;;6.50;3.05;;;;;;;17.03;41.49;101515.03;4900059;29;20136;-73
2023/05/28 07:27:54;;;;;;;8.13;2.80;;;;;;;17.12;41.89;101513.91;4898073;29;20052;-72
2023/05/28 07:30:21;;;;;;;17.98;9.68;;;;;;;17.95;41.20;101508.41;4913273;29;20579;-72
2023/05/28 07:32:48;;;;;;;7.43;2.80;;;;;;;18.28;38.90;101517.84;4931531;29;20068;-71
2023/05/28 07:35:14;;;;;;;10.43;2.97;;;;;;;18.61;38.36;101517.31;4935429;29;20043;-72
2023/05/28 07:37:41;;;;;;;6.20;2.78;;;;;;;18.66;38.93;101522.19;4934572;29;20054;-72
2023/05/28 07:40:08;;;;;;;6.60;2.63;;;;;;;19.33;38.77;101521.72;4935874;29;20040;-71
2023/05/28 07:42:35;;;;;;;6.78;2.92;;;;;;;19.34;37.02;101523.41;4935866;29;20056;-72
2023/05/28 07:45:01;;;;;;;7.03;3.05;;;;;;;20.08;36.98;101513.78;4935914;29;20048;-72
2023/05/28 07:47:28;;;;;;;7.20;2.65;;;;;;;20.35;38.92;101515.53;4935500;29;20059;-72
2023/05/28 07:49:55;;;;;;;9.88;2.70;;;;;;;20.39;36.63;101519.53;4935685;29;20055;-72
2023/05/28 07:52:21;;;;;;;13.75;2.85;;;;;;;20.91;34.54;101517.94;4936164;29;20067;-73
2023/05/28 07:54:48;;;;;;;10.80;3.20;;;;;;;20.70;36.82;101515.41;4935913;29;20052;-73
2023/05/28 07:57:15;;;;;;;10.30;3.05;;;;;;;21.13;35.39;101512.28;4935483;29;20377;-74
2023/05/28 07:59:41;;;;;;;8.40;2.97;;;;;;;21.04;35.85;101510.78;4935712;29;20117;-73
2023/05/28 08:02:08;;;;;;;6.00;2.67;;;;;;;20.96;35.64;101513.75;4935240;29;20055;-73
2023/05/28 08:04:35;;;;;;;6.55;2.70;;;;;;;21.05;32.89;101502.41;4935265;29;20055;-74
2023/05/28 08:07:01;;;;;;;8.63;2.90;;;;;;;21.25;31.65;101496.09;4935655;29;20138;-73
2023/05/28 08:09:28;;;;;;;18.30;2.70;;;;;;;21.08;33.89;101495.69;4935140;29;20055;-73
2023/05/28 08:11:54;;;;;;;18.50;2.90;;;;;;;20.08;30.18;101500.16;4935343;29;20043;-73
2023/05/28 08:14:21;;;;;;;6.63;2.33;;;;;;;20.09;31.60;101497.22;4935451;29;20429;-72
2023/05/28 08:16:47;;;;;;;10.50;2.70;;;;;;;20.23;33.64;101492.66;4934827;29;20067;-72
2023/05/28 08:19:14;;;;;;;7.45;2.47;;;;;;;20.88;32.12;101499.25;4935279;29;20507;-72
2023/05/28 08:21:41;;;;;;;10.68;2.72;;;;;;;20.88;33.86;101488.34;4934879;29;20055;-73
2023/05/28 08:24:10;;;;;;;8.98;2.97;;;;;;;21.69;31.21;101500.81;4934840;29;20087;-73
2023/05/28 08:26:39;;;;;;;8.65;2.35;;;;;;;20.39;30.70;101492.28;4924488;29;20052;-68
2023/05/28 08:29:05;;;;;;;10.48;2.88;;;;;;;19.99;30.87;101494.03;4921463;29;20064;-68
2023/05/28 08:31:32;;;;;;;7.43;2.67;;;;;;;19.88;32.70;101500.91;4921213;29;20071;-68
2023/05/28 08:33:59;;;;;;;10.45;3.00;;;;;;;19.78;30.88;101497.72;4940522;29;20059;-68
2023/05/28 08:36:26;;;;;;;7.30;2.47;;;;;;;20.64;30.62;101497.16;4941122;29;20067;-69
2023/05/28 08:38:53;;;;;;;6.90;2.88;;;;;;;19.93;30.49;101497.56;4940465;29;20408;-68
2023/05/28 08:41:21;;;;;;;7.60;2.75;;;;;;;20.84;30.66;101487.09;4919366;29;20056;-68
2023/05/28 08:43:50;;;;;;;9.02;2.70;;;;;;;21.01;28.89;101487.53;4931981;29;20048;-68
2023/05/28 08:46:18;;;;;;;4.97;2.58;;;;;;;20.03;30.42;101492.59;4937302;29;20071;-67
2023/05/28 08:48:47;;;;;;;6.07;2.67;;;;;;;20.49;34.30;101496.50;4938963;29;20101;-68
2023/05/28 08:51:14;;;;;;;6.18;2.60;;;;;;;21.71;32.42;101485.06;4939378;29;20115;-68
2023/05/28 08:53:46;;;;;;;8.40;2.55;;;;;;;22.68;28.91;101474.91;4938860;29;20071;-70
2023/05/28 08:56:13;;;;;;;8.43;2.33;;;;;;;22.81;27.17;101479.44;4921874;29;20099;-70
2023/05/28 08:58:39;;;;;;;9.48;2.88;;;;;;;22.07;28.05;101470.00;4938196;29;20055;-69
2023/05/28 09:01:07;;;;;;;6.00;2.15;;;;;;;21.99;27.85;101475.75;4938989;29;20047;-70
2023/05/28 09:03:35;;;;;;;7.53;2.50;;;;;;;22.61;27.16;101479.59;4938878;29;20130;-68
2023/05/28 09:06:03;;;;;;;11.75;2.40;;;;;;;22.76;27.72;101474.59;4937905;29;20438;-70
2023/05/28 09:08:29;;;;;;;8.93;2.50;;;;;;;22.94;27.49;101462.88;4917993;29;20515;-70
2023/05/28 09:10:57;;;;;;;4.18;2.28;;;;;;;23.94;28.55;101467.28;4934533;29;20563;-70
2023/05/28 09:13:25;;;;;;;6.22;2.90;;;;;;;23.92;25.91;101461.22;4934472;29;20051;-71
2023/05/28 09:15:53;;;;;;;6.28;2.53;;;;;;;22.39;26.66;101467.28;4918107;29;20044;-70
2023/05/28 09:18:21;;;;;;;7.05;2.28;;;;;;;23.23;28.60;101453.16;4933660;29;20111;-71
2023/05/28 09:20:51;;;;;;;7.05;2.40;;;;;;;24.24;26.95;101456.31;4934576;29;20130;-70
2023/05/28 09:23:18;;;;;;;11.03;7.03;;;;;;;24.56;27.32;101459.63;4933788;29;20058;-72
2023/05/28 09:25:45;;;;;;;7.15;2.72;;;;;;;25.13;27.25;101454.47;4933630;29;20122;-74
2023/05/28 09:28:15;;;;;;;6.03;2.70;;;;;;;24.81;24.94;101442.97;4933843;29;20047;-73
2023/05/28 09:30:42;;;;;;;4.83;2.70;;;;;;;24.21;25.51;101441.16;4931666;29;20523;-71
2023/05/28 09:33:09;;;;;;;7.10;2.78;;;;;;;25.49;25.43;101444.25;4914861;29;20059;-72
2023/05/28 09:35:36;;;;;;;4.95;2.53;;;;;;;26.16;23.64;101445.56;4921173;29;20150;-72
2023/05/28 09:38:08;;;;;;;7.55;2.40;;;;;;;25.55;24.28;101445.19;4933451;29;20062;-72
2023/05/28 09:40:41;;;;;;;9.90;2.78;;;;;;;26.06;22.94;101429.72;4931303;29;20062;-72
2023/05/28 09:43:09;;;;;;;4.32;2.28;;;;;;;25.92;23.90;101433.84;4916894;29;20460;-73
2023/05/28 09:45:36;;;;;;;6.30;2.50;;;;;;;23.68;24.25;101436.41;4933089;29;20111;-72
2023/05/28 09:48:03;;;;;;;5.43;2.30;;;;;;;23.48;24.19;101438.56;4931097;29;20496;-73
2023/05/28 09:50:30;;;;;;;5.05;2.40;;;;;;;24.87;24.16;101428.28;4933590;29;20421;-73
2023/05/28 09:52:58;;;;;;;5.40;2.60;;;;;;;25.48;26.83;101425.25;4932909;29;20103;-73
2023/05/28 09:55:26;;;;;;;9.90;2.58;;;;;;;26.30;24.88;101422.19;4933582;29;20055;-72
2023/05/28 09:58:04;;;;;;;9.90;2.70;;;;;;;25.69;22.63;101427.38;4934442;29;20044;-73
2023/05/28 10:00:54;;;;;;;7.15;2.70;;;;;;;24.98;22.52;101429.34;4932625;29;20063;-72
2023/05/28 10:03:35;;;;;;;5.85;2.45;;;;;;;24.17;23.15;101425.44;4914654;29;20051;-72
2023/05/28 10:06:17;;;;;;;8.35;2.53;;;;;;;23.94;23.83;101423.44;4932997;29;20040;-72
2023/05/28 10:08:48;;;;;;;;;;;;;;;24.10;25.49;101421.94;4933053;29;20200;-72
2023/05/28 10:11:18;;;;;;;7.70;2.58;;;;;;;25.02;27.03;101419.59;4933616;29;20009;-72
2023/05/28 10:13:46;;;;;;;6.28;2.35;;;;;;;25.35;26.46;101421.69;4932303;29;20047;-73
2023/05/28 10:16:13;;;;;;;7.38;2.63;;;;;;;25.64;24.68;101404.44;4932503;29;20051;-72
2023/05/28 10:18:42;;;;;;;10.48;2.42;;;;;;;25.84;22.36;101410.34;4932477;29;20511;-72
2023/05/28 10:21:09;;;;;;;8.50;2.70;;;;;;;24.71;23.05;101407.03;4932089;29;20098;-72
2023/05/28 10:23:36;;;;;;;6.20;2.55;;;;;;;23.56;24.07;101404.53;4932589;29;20051;-72
2023/05/28 10:26:04;;;;;;;6.68;2.58;;;;;;;23.41;23.95;101402.19;4931149;29;20054;-72
2023/05/28 10:28:31;;;;;;;7.80;2.70;;;;;;;23.63;24.29;101411.59;4933088;29;20693;-72
2023/05/28 10:31:10;;;;;;;6.20;2.35;;;;;;;24.67;23.94;101400.38;4919936;29;20389;-72
2023/05/28 10:33:41;;;;;;;6.85;2.53;;;;;;;23.80;24.17;101411.00;4913667;29;20052;-73
2023/05/28 10:36:15;;;;;;;7.70;2.90;;;;;;;22.81;25.32;101416.50;4913684;29;20416;-72
2023/05/28 10:38:59;;;;;;;9.35;2.90;;;;;;;23.83;25.38;101410.53;4913358;29;20052;-72
2023/05/28 10:41:31;;;;;;;7.85;2.78;;;;;;;22.87;24.60;101409.28;4913622;29;20107;-74
2023/05/28 10:44:06;;;;;;;6.80;2.60;;;;;;;22.21;24.94;101411.47;4913709;29;20055;-73
2023/05/28 10:46:39;;;;;;;6.00;2.72;;;;;;;22.08;27.55;101408.84;4913929;29;20055;-73
2023/05/28 10:49:15;;;;;;;4.47;2.30;;;;;;;22.92;28.39;101404.81;4913566;29;20111;-73
2023/05/28 10:52:00;;;;;;;9.68;2.60;;;;;;;24.01;26.93;101402.25;4913373;29;20056;-73
2023/05/28 10:54:51;;;;;;;5.43;2.35;;;;;;;22.51;26.32;101402.69;4913944;29;20127;-73
2023/05/28 10:57:19;;;;;;;8.30;2.57;;;;;;;21.57;28.46;101412.47;4913807;29;20127;-74
2023/05/28 10:59:59;;;;;;;4.45;2.42;;;;;;;20.92;28.21;101413.25;4913705;29;20299;-71
2023/05/28 11:02:33;;;;;;;4.38;2.30;;;;;;;21.00;28.20;101405.88;4910246;29;20052;-71
2023/05/28 11:05:02;;;;;;;6.22;2.25;;;;;;;21.32;29.04;101413.19;4912960;29;20056;-72
2023/05/28 11:07:36;;;;;;;6.90;2.60;;;;;;;20.99;27.87;101407.78;4913105;29;20076;-72
2023/05/28 11:10:15;;;;;;;9.60;2.25;;;;;;;20.95;29.27;101409.25;4913160;29;20048;-72
2023/05/28 11:12:43;;;;;;;4.03;2.78;;;;;;;21.31;30.31;101411.50;4914375;29;20493;-72
2023/05/28 11:15:13;;;;;;;6.80;2.30;;;;;;;21.60;30.29;101407.41;4916162;29;20104;-72
2023/05/28 11:17:42;;;;;;;8.45;2.58;;;;;;;21.90;29.69;101397.81;4916858;29;20206;-73
2023/05/28 11:20:27;;;;;;;9.65;2.75;;;;;;;21.95;27.10;101404.31;4917340;29;20151;-73
2023/05/28 11:22:55;;;;;;;7.53;2.85;;;;;;;21.76;26.86;101397.84;4917214;29;20100;-74